Bf Caroda — V2CV5 — position and weather

sailwx.info

Track history (hours):
 
Tides and Currents Weather Stations Pressure Air Temp Water Temp Dewpoint Dewpoint Depression Visibility Wind Speed Wind Dir Waves Ship Positions

Bf Caroda

Last reported at 2016-Dec-03 18:33 UTC. Time now 2016-Dec-03 19:42 UTC.
Position N 35°59' W 005°17'.

Length 134 m; draft 7.2 m.

Type: Ship (hazmat cat A). MMSI: 304678000.

Date/timePositionNaut miles runAvg speedWind from/ knotsBaromVisibWave heightAir tempDewpointWater temp
2016-Dec-03 18:33N 35°59' W 005°17'32414.7
2016-Dec-02 20:32N 32°01' W 009°42'  
2016-Nov-28 21:24N 35°58' W 005°35'131 5.9
2016-Nov-27 23:13N 36°20' W 002°55'1116.6
2016-Nov-27 22:33N 36°22' W 002°42'9916.1
2016-Nov-27 16:23N 37°17' W 000°59'1416.2
2016-Nov-27 15:33N 37°26' W 000°46'1616.1
2016-Nov-27 14:33N 37°37' W 000°31'10614.2
2016-Nov-27 07:07N 39°21' W 000°12'813.6
2016-Nov-27 06:33N 39°27' W 000°19'1 0.8
2016-Nov-27 05:32N 39°27' W 000°19'0 0.0
2016-Nov-27 04:32N 39°27' W 000°19'0 0.0
2016-Nov-27 02:31N 39°27' W 000°19'0 0.0
2016-Nov-26 22:23N 39°27' W 000°19'0 0.0
2016-Nov-26 21:23N 39°27' W 000°19'0 0.0
2016-Nov-26 20:29N 39°27' W 000°19'0 0.2
2016-Nov-26 18:33N 39°27' W 000°19'6 5.7
2016-Nov-26 17:33N 39°28' W 000°12'5814.5
2016-Nov-26 13:32N 40°09' E 000°42'1514.6
2016-Nov-26 12:29N 40°19' E 000°57'1414.8
2016-Nov-26 11:33N 40°28' E 001°11'1615.1
2016-Nov-26 10:28N 40°39' E 001°28'1415.0
2016-Nov-26 09:32N 40°49' E 001°40'212 7.1
2016-Nov-25 03:33N 43°14' E 005°09'5 0.4
2016-Nov-24 16:04N 43°18' E 005°12'16915.9
2016-Nov-24 05:26N 41°02' E 002°56'1315.3
2016-Nov-24 04:33N 40°52' E 002°46'1616.0
2016-Nov-24 03:33N 40°39' E 002°33'1616.4
2016-Nov-24 02:33N 40°26' E 002°20'1716.6
2016-Nov-24 01:33N 40°13' E 002°06'1717.1
2016-Nov-24 00:33N 39°60' E 001°52'1716.9
2016-Nov-23 23:33N 39°46' E 001°39'1717.2
2016-Nov-23 22:33N 39°32' E 001°26'  
Track history (hours):
 
Tides and Currents Weather Stations Pressure Air Temp Water Temp Dewpoint Dewpoint Depression Visibility Wind Speed Wind Dir Waves Ship Positions

Bf Caroda

Last reported at 2016-Dec-03 18:33 UTC. Time now 2016-Dec-03 19:42 UTC.
Position N 35°59' W 005°17'.

Length 134 m; draft 7.2 m.

Type: Ship (hazmat cat A). MMSI: 304678000.

Date/timePositionNaut miles runAvg speedWind from/ knotsBaromVisibWave heightAir tempDewpointWater temp
2016-Dec-03 18:33N 35°59' W 005°17'32414.7
2016-Dec-02 20:32N 32°01' W 009°42'  
2016-Nov-28 21:24N 35°58' W 005°35'131 5.9
2016-Nov-27 23:13N 36°20' W 002°55'1116.6
2016-Nov-27 22:33N 36°22' W 002°42'9916.1
2016-Nov-27 16:23N 37°17' W 000°59'1416.2
2016-Nov-27 15:33N 37°26' W 000°46'1616.1
2016-Nov-27 14:33N 37°37' W 000°31'10614.2
2016-Nov-27 07:07N 39°21' W 000°12'813.6
2016-Nov-27 06:33N 39°27' W 000°19'1 0.8
2016-Nov-27 05:32N 39°27' W 000°19'0 0.0
2016-Nov-27 04:32N 39°27' W 000°19'0 0.0
2016-Nov-27 02:31N 39°27' W 000°19'0 0.0
2016-Nov-26 22:23N 39°27' W 000°19'0 0.0
2016-Nov-26 21:23N 39°27' W 000°19'0 0.0
2016-Nov-26 20:29N 39°27' W 000°19'0 0.2
2016-Nov-26 18:33N 39°27' W 000°19'6 5.7
2016-Nov-26 17:33N 39°28' W 000°12'5814.5
2016-Nov-26 13:32N 40°09' E 000°42'1514.6
2016-Nov-26 12:29N 40°19' E 000°57'1414.8
2016-Nov-26 11:33N 40°28' E 001°11'1615.1
2016-Nov-26 10:28N 40°39' E 001°28'1415.0
2016-Nov-26 09:32N 40°49' E 001°40'212 7.1
2016-Nov-25 03:33N 43°14' E 005°09'5 0.4
2016-Nov-24 16:04N 43°18' E 005°12'16915.9
2016-Nov-24 05:26N 41°02' E 002°56'1315.3
2016-Nov-24 04:33N 40°52' E 002°46'1616.0
2016-Nov-24 03:33N 40°39' E 002°33'1616.4
2016-Nov-24 02:33N 40°26' E 002°20'1716.6
2016-Nov-24 01:33N 40°13' E 002°06'1717.1
2016-Nov-24 00:33N 39°60' E 001°52'1716.9
2016-Nov-23 23:33N 39°46' E 001°39'1717.2
2016-Nov-23 22:33N 39°32' E 001°26'  

Dump ship's entire track history